Impacts TAF Board INFO
FOR SITUATIONAL AWARENESS. NOT TO BE USED FOR FLIGHT PLANNING PURPOSES.
IDs:

KSAN - San Diego Intl Arpt, CA, US

Issued at 2330 UTC 29 Mar 2017
Updated at 0048 UTC 30 Mar 2017
Potential Impact None Slight Moderate High
Time2351Z 30/01Z 30/02Z 30/03Z 30/04Z 30/05Z 30/06Z 30/07Z 30/08Z 30/09Z 30/10Z 30/11Z 30/12Z 30/13Z
Type OBS PRVL PRVL PRVL PRVL PRVL PRVL PRVL PRVL PRVL PRVL PRVL PRVL
  [TEMP]  
PRVL
  [TEMP]  
VIS 10 >6 >6 >6 >6 >6 >6 >6 >6 >6 >6 >6 >6
  [4]  
>6
  [4]  
CIG -- -- -- -- -- -- -- -- -- -- -- -- --
  [4]  
--
  [4]  
Cover FEW FEW FEW FEW FEW FEW FEW FEW FEW FEW FEW SCT SCT
  [BKN]  
SCT
  [BKN]  
FltCat VFR VFR VFR VFR VFR VFR VFR VFR VFR VFR VFR VFR VFR
  [LIFR]  
VFR
  [LIFR]  
WX -- -- -- -- -- -- -- -- -- -- -- VCFG VCFG
  [BR]  
VCFG
  [BR]  
WDir 300 VRB VRB VRB VRB VRB VRB VRB VRB VRB VRB VRB VRB
[VRB]
VRB
[VRB]
WSpd 10 4 4 4 4 4 4 4 4 4 4 4 4
  [4]  
4
  [4]  
WGst -- -- -- -- -- -- -- -- -- -- -- -- --
  [--]  
--
  [--]  

Raw TAF
KSAN 292330Z 3000/3106 29009KT P6SM FEW250
  FM300100 VRB04KT P6SM FEW250
  FM301100 VRB04KT P6SM VCFG SCT005
  TEMPO 3012/3016 4SM BR BKN004
  FM301600 18007KT P6SM SCT009
  FM301900 21010KT P6SM SCT015
  FM310000 25007KT P6SM BKN020


Raw METAR
KSAN 292351Z 30010KT 10SM FEW250 24/03 A3001 RMK AO2 SLP163 T02440033 10256 20228 56007
KSAN 292251Z 30010KT 10SM FEW250 24/02 A3002 RMK AO2 SLP165 T02390022
KSAN 292151Z 30012KT 10SM FEW250 25/00 A3003 RMK AO2 SLP167 T02500000

METAR Board
Radar Display
Forecast Discussion

FOR SITUATIONAL AWARENESS. NOT TO BE USED FOR FLIGHT PLANNING PURPOSES.

Page loaded:  00:48 UTC  |   05:48 PM Pacific  |   06:48 PM Mountain  |   07:48 PM Central  |   08:48 PM Eastern

 

ADVISORIES

FORECASTS

FORECASTS

OBSERVATIONS

USER TOOLS

ABOUT US